sensor_id;sensor_type;location;lat;lon;timestamp;pressure;altitude;pressure_sealevel;temperature;humidity
20350;BME280;10332;50.208;18.988;2023-07-29T00:01:09;97461.69;;;20.52;100.00
20350;BME280;10332;50.208;18.988;2023-07-29T00:03:37;97463.25;;;20.47;100.00
20350;BME280;10332;50.208;18.988;2023-07-29T00:06:04;97458.75;;;20.47;100.00
20350;BME280;10332;50.208;18.988;2023-07-29T00:08:32;97464.06;;;20.47;100.00
20350;BME280;10332;50.208;18.988;2023-07-29T00:10:59;97471.00;;;20.48;100.00
20350;BME280;10332;50.208;18.988;2023-07-29T00:13:27;97467.38;;;20.49;100.00
20350;BME280;10332;50.208;18.988;2023-07-29T00:15:55;97464.88;;;20.48;100.00
20350;BME280;10332;50.208;18.988;2023-07-29T00:18:23;97467.53;;;20.48;100.00
20350;BME280;10332;50.208;18.988;2023-07-29T00:20:50;97460.78;;;20.45;100.00
20350;BME280;10332;50.208;18.988;2023-07-29T00:23:18;97463.78;;;20.42;100.00
20350;BME280;10332;50.208;18.988;2023-07-29T00:25:48;97466.78;;;20.39;100.00
20350;BME280;10332;50.208;18.988;2023-07-29T00:28:16;97461.59;;;20.46;100.00
20350;BME280;10332;50.208;18.988;2023-07-29T00:30:46;97457.13;;;20.46;100.00
20350;BME280;10332;50.208;18.988;2023-07-29T00:33:13;97468.59;;;20.38;100.00
20350;BME280;10332;50.208;18.988;2023-07-29T00:35:41;97460.56;;;20.32;100.00
20350;BME280;10332;50.208;18.988;2023-07-29T00:38:08;97457.19;;;20.23;100.00
20350;BME280;10332;50.208;18.988;2023-07-29T00:40:36;97460.47;;;20.25;100.00
20350;BME280;10332;50.208;18.988;2023-07-29T00:43:04;97446.66;;;20.30;100.00
20350;BME280;10332;50.208;18.988;2023-07-29T00:45:33;97451.13;;;20.29;100.00
20350;BME280;10332;50.208;18.988;2023-07-29T00:48:02;97456.00;;;20.40;100.00
20350;BME280;10332;50.208;18.988;2023-07-29T00:50:32;97444.66;;;20.32;100.00
20350;BME280;10332;50.208;18.988;2023-07-29T00:52:59;97447.94;;;20.34;100.00
20350;BME280;10332;50.208;18.988;2023-07-29T00:55:28;97447.38;;;20.38;100.00
20350;BME280;10332;50.208;18.988;2023-07-29T00:57:56;97451.53;;;20.41;100.00
20350;BME280;10332;50.208;18.988;2023-07-29T01:00:25;97446.66;;;20.30;100.00
20350;BME280;10332;50.208;18.988;2023-07-29T01:02:52;97436.09;;;20.45;100.00
20350;BME280;10332;50.208;18.988;2023-07-29T01:05:29;97440.25;;;20.39;100.00
20350;BME280;10332;50.208;18.988;2023-07-29T01:08:06;97449.69;;;20.41;100.00
20350;BME280;10332;50.208;18.988;2023-07-29T01:14:51;97436.88;;;20.30;100.00
20350;BME280;10332;50.208;18.988;2023-07-29T01:17:00;97436.03;;;20.30;100.00
20350;BME280;10332;50.208;18.988;2023-07-29T01:22:13;97423.19;;;20.41;100.00
20350;BME280;10332;50.208;18.988;2023-07-29T01:24:40;97425.66;;;20.43;100.00
20350;BME280;10332;50.208;18.988;2023-07-29T01:27:08;97427.38;;;20.36;100.00
20350;BME280;10332;50.208;18.988;2023-07-29T01:29:36;97422.69;;;20.38;100.00
20350;BME280;10332;50.208;18.988;2023-07-29T01:35:03;97424.44;;;20.31;100.00
20350;BME280;10332;50.208;18.988;2023-07-29T01:37:38;97425.09;;;20.33;100.00
20350;BME280;10332;50.208;18.988;2023-07-29T01:40:08;97427.19;;;20.37;100.00
20350;BME280;10332;50.208;18.988;2023-07-29T01:42:37;97433.44;;;20.45;100.00
20350;BME280;10332;50.208;18.988;2023-07-29T01:45:05;97432.63;;;20.44;100.00
20350;BME280;10332;50.208;18.988;2023-07-29T01:47:33;97434.44;;;20.44;100.00
20350;BME280;10332;50.208;18.988;2023-07-29T01:50:00;97435.09;;;20.46;100.00
20350;BME280;10332;50.208;18.988;2023-07-29T01:52:28;97440.84;;;20.49;100.00
20350;BME280;10332;50.208;18.988;2023-07-29T01:54:55;97439.03;;;20.50;100.00
20350;BME280;10332;50.208;18.988;2023-07-29T01:57:23;97449.44;;;20.51;100.00
20350;BME280;10332;50.208;18.988;2023-07-29T01:59:50;97456.41;;;20.52;100.00
20350;BME280;10332;50.208;18.988;2023-07-29T02:02:18;97459.97;;;20.45;100.00
20350;BME280;10332;50.208;18.988;2023-07-29T02:04:45;97455.91;;;20.49;100.00
20350;BME280;10332;50.208;18.988;2023-07-29T02:07:19;97452.81;;;20.45;100.00
20350;BME280;10332;50.208;18.988;2023-07-29T02:09:46;97462.09;;;20.26;100.00
20350;BME280;10332;50.208;18.988;2023-07-29T02:12:14;97460.19;;;20.35;100.00
20350;BME280;10332;50.208;18.988;2023-07-29T02:14:41;97459.28;;;20.42;100.00
20350;BME280;10332;50.208;18.988;2023-07-29T02:17:09;97451.47;;;20.49;100.00
20350;BME280;10332;50.208;18.988;2023-07-29T02:19:36;97452.28;;;20.50;100.00
20350;BME280;10332;50.208;18.988;2023-07-29T02:22:04;97457.94;;;20.47;100.00
20350;BME280;10332;50.208;18.988;2023-07-29T02:24:32;97448.69;;;20.42;100.00
20350;BME280;10332;50.208;18.988;2023-07-29T02:26:59;97451.69;;;20.39;100.00
20350;BME280;10332;50.208;18.988;2023-07-29T02:29:27;97447.72;;;20.44;100.00
20350;BME280;10332;50.208;18.988;2023-07-29T02:31:54;97448.47;;;20.29;100.00
20350;BME280;10332;50.208;18.988;2023-07-29T02:34:22;97449.75;;;20.19;100.00
20350;BME280;10332;50.208;18.988;2023-07-29T02:36:49;97455.59;;;20.29;100.00
20350;BME280;10332;50.208;18.988;2023-07-29T02:39:16;97461.38;;;20.32;100.00
20350;BME280;10332;50.208;18.988;2023-07-29T02:41:44;97459.56;;;20.33;100.00
20350;BME280;10332;50.208;18.988;2023-07-29T02:44:12;97454.78;;;20.28;100.00
20350;BME280;10332;50.208;18.988;2023-07-29T02:46:39;97461.72;;;20.29;100.00
20350;BME280;10332;50.208;18.988;2023-07-29T02:49:07;97458.91;;;20.16;100.00
20350;BME280;10332;50.208;18.988;2023-07-29T02:51:34;97459.53;;;20.18;100.00
20350;BME280;10332;50.208;18.988;2023-07-29T02:54:01;97463.50;;;20.22;100.00
20350;BME280;10332;50.208;18.988;2023-07-29T02:56:29;97474.34;;;20.27;100.00
20350;BME280;10332;50.208;18.988;2023-07-29T02:58:57;97467.78;;;20.23;100.00
20350;BME280;10332;50.208;18.988;2023-07-29T03:01:25;97467.47;;;20.18;100.00
20350;BME280;10332;50.208;18.988;2023-07-29T03:03:53;97468.13;;;20.20;100.00
20350;BME280;10332;50.208;18.988;2023-07-29T03:06:20;97467.94;;;20.22;100.00
20350;BME280;10332;50.208;18.988;2023-07-29T03:08:48;97466.47;;;20.19;100.00
20350;BME280;10332;50.208;18.988;2023-07-29T03:11:16;97469.75;;;20.21;100.00
20350;BME280;10332;50.208;18.988;2023-07-29T03:13:44;97465.47;;;20.20;100.00
20350;BME280;10332;50.208;18.988;2023-07-29T03:16:13;97476.25;;;20.19;100.00
20350;BME280;10332;50.208;18.988;2023-07-29T03:18:43;97483.19;;;20.20;100.00
20350;BME280;10332;50.208;18.988;2023-07-29T03:21:11;97476.91;;;20.21;100.00
20350;BME280;10332;50.208;18.988;2023-07-29T03:23:38;97471.97;;;20.18;100.00
20350;BME280;10332;50.208;18.988;2023-07-29T03:26:06;97479.53;;;20.21;100.00
20350;BME280;10332;50.208;18.988;2023-07-29T03:28:43;97476.25;;;20.19;100.00
20350;BME280;10332;50.208;18.988;2023-07-29T03:31:11;97472.41;;;20.21;100.00
20350;BME280;10332;50.208;18.988;2023-07-29T03:33:38;97480.38;;;20.21;100.00
20350;BME280;10332;50.208;18.988;2023-07-29T03:36:06;97481.38;;;20.05;100.00
20350;BME280;10332;50.208;18.988;2023-07-29T03:38:34;97485.41;;;20.16;100.00
20350;BME280;10332;50.208;18.988;2023-07-29T03:41:03;97485.22;;;20.18;100.00
20350;BME280;10332;50.208;18.988;2023-07-29T03:43:30;97483.75;;;20.15;100.00
20350;BME280;10332;50.208;18.988;2023-07-29T03:45:58;97480.03;;;20.24;100.00
20350;BME280;10332;50.208;18.988;2023-07-29T03:48:26;97481.94;;;20.30;100.00
20350;BME280;10332;50.208;18.988;2023-07-29T03:50:53;97487.09;;;20.32;100.00
20350;BME280;10332;50.208;18.988;2023-07-29T03:53:21;97480.41;;;20.36;100.00
20350;BME280;10332;50.208;18.988;2023-07-29T03:55:49;97484.00;;;20.43;100.00
20350;BME280;10332;50.208;18.988;2023-07-29T03:58:17;97481.63;;;20.48;100.00
20350;BME280;10332;50.208;18.988;2023-07-29T04:00:44;97486.38;;;20.53;100.00
20350;BME280;10332;50.208;18.988;2023-07-29T04:03:12;97485.19;;;20.55;100.00
20350;BME280;10332;50.208;18.988;2023-07-29T04:05:40;97490.41;;;20.63;100.00
20350;BME280;10332;50.208;18.988;2023-07-29T04:08:07;97501.75;;;20.72;100.00
20350;BME280;10332;50.208;18.988;2023-07-29T04:10:35;97498.81;;;20.82;100.00
20350;BME280;10332;50.208;18.988;2023-07-29T04:13:02;97504.59;;;20.85;100.00
20350;BME280;10332;50.208;18.988;2023-07-29T04:15:30;97502.41;;;20.89;100.00
20350;BME280;10332;50.208;18.988;2023-07-29T04:17:57;97502.97;;;20.69;100.00
20350;BME280;10332;50.208;18.988;2023-07-29T04:20:25;97498.00;;;20.81;100.00
20350;BME280;10332;50.208;18.988;2023-07-29T04:22:52;97501.47;;;20.96;100.00
20350;BME280;10332;50.208;18.988;2023-07-29T04:25:20;97501.13;;;20.85;100.00
20350;BME280;10332;50.208;18.988;2023-07-29T04:27:47;97500.56;;;20.89;100.00
20350;BME280;10332;50.208;18.988;2023-07-29T04:30:15;97511.09;;;20.97;100.00
20350;BME280;10332;50.208;18.988;2023-07-29T04:32:42;97506.03;;;21.03;100.00
20350;BME280;10332;50.208;18.988;2023-07-29T04:35:12;97503.50;;;20.94;100.00
20350;BME280;10332;50.208;18.988;2023-07-29T04:37:40;97499.44;;;21.13;100.00
20350;BME280;10332;50.208;18.988;2023-07-29T04:40:08;97498.53;;;21.21;99.34
20350;BME280;10332;50.208;18.988;2023-07-29T04:42:36;97496.41;;;21.16;99.78
20350;BME280;10332;50.208;18.988;2023-07-29T04:45:05;97493.03;;;20.93;100.00
20350;BME280;10332;50.208;18.988;2023-07-29T04:47:32;97493.22;;;21.06;100.00
20350;BME280;10332;50.208;18.988;2023-07-29T04:50:00;97494.72;;;20.94;100.00
20350;BME280;10332;50.208;18.988;2023-07-29T04:52:27;97500.81;;;21.09;100.00
20350;BME280;10332;50.208;18.988;2023-07-29T04:54:55;97506.22;;;21.16;100.00
20350;BME280;10332;50.208;18.988;2023-07-29T04:57:23;97512.53;;;21.15;100.00
20350;BME280;10332;50.208;18.988;2023-07-29T04:59:50;97504.09;;;21.11;100.00
20350;BME280;10332;50.208;18.988;2023-07-29T05:02:17;97509.88;;;21.15;100.00
20350;BME280;10332;50.208;18.988;2023-07-29T05:04:45;97514.38;;;21.14;100.00
20350;BME280;10332;50.208;18.988;2023-07-29T05:07:13;97525.44;;;21.18;100.00
20350;BME280;10332;50.208;18.988;2023-07-29T05:09:40;97522.22;;;21.22;100.00
20350;BME280;10332;50.208;18.988;2023-07-29T05:12:08;97525.44;;;21.33;100.00
20350;BME280;10332;50.208;18.988;2023-07-29T05:14:36;97514.81;;;21.33;100.00
20350;BME280;10332;50.208;18.988;2023-07-29T05:17:03;97524.88;;;21.22;100.00
20350;BME280;10332;50.208;18.988;2023-07-29T05:19:31;97531.38;;;21.49;99.76
20350;BME280;10332;50.208;18.988;2023-07-29T05:21:58;97526.56;;;21.60;99.57
20350;BME280;10332;50.208;18.988;2023-07-29T05:24:26;97527.28;;;21.68;98.57
20350;BME280;10332;50.208;18.988;2023-07-29T05:26:54;97533.94;;;21.64;99.01
20350;BME280;10332;50.208;18.988;2023-07-29T05:29:21;97527.16;;;21.76;97.98
20350;BME280;10332;50.208;18.988;2023-07-29T05:31:49;97529.97;;;21.53;99.11
20350;BME280;10332;50.208;18.988;2023-07-29T05:34:16;97532.19;;;21.71;98.66
20350;BME280;10332;50.208;18.988;2023-07-29T05:36:43;97547.75;;;21.74;98.77
20350;BME280;10332;50.208;18.988;2023-07-29T05:39:11;97543.16;;;22.04;96.64
20350;BME280;10332;50.208;18.988;2023-07-29T05:41:39;97548.69;;;22.03;96.76
20350;BME280;10332;50.208;18.988;2023-07-29T05:44:07;97537.56;;;22.14;96.58
20350;BME280;10332;50.208;18.988;2023-07-29T05:46:37;97542.75;;;22.22;96.31
20350;BME280;10332;50.208;18.988;2023-07-29T05:49:05;97536.94;;;22.12;97.12
20350;BME280;10332;50.208;18.988;2023-07-29T05:51:32;97530.00;;;22.39;95.38
20350;BME280;10332;50.208;18.988;2023-07-29T05:54:00;97533.41;;;22.33;95.88
20350;BME280;10332;50.208;18.988;2023-07-29T05:56:27;97536.66;;;22.56;94.62
20350;BME280;10332;50.208;18.988;2023-07-29T05:58:55;97541.00;;;22.64;94.07
20350;BME280;10332;50.208;18.988;2023-07-29T06:01:22;97534.50;;;22.38;94.83
20350;BME280;10332;50.208;18.988;2023-07-29T06:03:50;97547.31;;;22.56;94.26
20350;BME280;10332;50.208;18.988;2023-07-29T06:06:17;97537.34;;;22.65;93.64
20350;BME280;10332;50.208;18.988;2023-07-29T06:08:45;97539.31;;;22.56;94.38
20350;BME280;10332;50.208;18.988;2023-07-29T06:11:12;97537.72;;;22.62;93.46
20350;BME280;10332;50.208;18.988;2023-07-29T06:13:40;97541.09;;;22.77;93.45
20350;BME280;10332;50.208;18.988;2023-07-29T06:16:07;97535.69;;;22.92;92.88
20350;BME280;10332;50.208;18.988;2023-07-29T06:18:35;97547.44;;;23.04;92.52
20350;BME280;10332;50.208;18.988;2023-07-29T06:21:02;97549.53;;;23.15;91.34
20350;BME280;10332;50.208;18.988;2023-07-29T06:23:34;97551.06;;;23.44;89.97
20350;BME280;10332;50.208;18.988;2023-07-29T06:26:02;97551.13;;;23.58;89.60
20350;BME280;10332;50.208;18.988;2023-07-29T06:28:30;97552.66;;;23.73;89.38
20350;BME280;10332;50.208;18.988;2023-07-29T06:30:57;97553.69;;;23.79;89.13
20350;BME280;10332;50.208;18.988;2023-07-29T06:33:25;97557.97;;;23.80;89.22
20350;BME280;10332;50.208;18.988;2023-07-29T06:35:52;97566.81;;;23.81;88.93
20350;BME280;10332;50.208;18.988;2023-07-29T06:38:20;97569.09;;;23.97;88.05
20350;BME280;10332;50.208;18.988;2023-07-29T06:40:49;97573.44;;;24.11;87.73
20350;BME280;10332;50.208;18.988;2023-07-29T06:43:17;97574.66;;;24.15;87.27
20350;BME280;10332;50.208;18.988;2023-07-29T06:45:45;97579.22;;;24.28;87.00
20350;BME280;10332;50.208;18.988;2023-07-29T06:48:12;97573.91;;;24.54;86.54
20350;BME280;10332;50.208;18.988;2023-07-29T06:50:40;97582.09;;;24.66;85.93
20350;BME280;10332;50.208;18.988;2023-07-29T06:53:09;97574.50;;;24.83;85.38
20350;BME280;10332;50.208;18.988;2023-07-29T06:55:36;97575.53;;;24.82;85.45
20350;BME280;10332;50.208;18.988;2023-07-29T06:58:04;97579.00;;;24.89;84.99
20350;BME280;10332;50.208;18.988;2023-07-29T07:00:31;97575.91;;;24.92;84.83
20350;BME280;10332;50.208;18.988;2023-07-29T07:02:59;97574.66;;;25.14;84.22
20350;BME280;10332;50.208;18.988;2023-07-29T07:05:27;97571.53;;;25.31;83.45
20350;BME280;10332;50.208;18.988;2023-07-29T07:07:54;97566.03;;;25.19;82.39
20350;BME280;10332;50.208;18.988;2023-07-29T07:10:22;97565.38;;;25.24;81.74
20350;BME280;10332;50.208;18.988;2023-07-29T07:12:49;97576.72;;;25.12;80.89
20350;BME280;10332;50.208;18.988;2023-07-29T07:15:17;97574.06;;;24.99;81.59
20350;BME280;10332;50.208;18.988;2023-07-29T07:17:44;97572.81;;;24.95;82.64
20350;BME280;10332;50.208;18.988;2023-07-29T07:20:12;97568.94;;;24.91;82.05
20350;BME280;10332;50.208;18.988;2023-07-29T07:22:40;97570.56;;;25.05;81.91
20350;BME280;10332;50.208;18.988;2023-07-29T07:25:07;97567.00;;;25.25;81.34
20350;BME280;10332;50.208;18.988;2023-07-29T07:27:36;97570.47;;;25.38;80.75
20350;BME280;10332;50.208;18.988;2023-07-29T07:30:05;97567.09;;;25.56;80.17
20350;BME280;10332;50.208;18.988;2023-07-29T07:32:32;97569.94;;;25.74;79.28
20350;BME280;10332;50.208;18.988;2023-07-29T07:35:00;97574.44;;;25.81;77.78
20350;BME280;10332;50.208;18.988;2023-07-29T07:37:28;97577.72;;;25.76;77.97
20350;BME280;10332;50.208;18.988;2023-07-29T07:39:56;97576.28;;;25.80;77.24
20350;BME280;10332;50.208;18.988;2023-07-29T07:42:23;97573.56;;;25.87;77.40
20350;BME280;10332;50.208;18.988;2023-07-29T07:44:51;97570.16;;;26.04;76.81
20350;BME280;10332;50.208;18.988;2023-07-29T07:47:18;97573.69;;;26.30;76.33
20350;BME280;10332;50.208;18.988;2023-07-29T07:49:46;97581.63;;;26.68;75.34
20350;BME280;10332;50.208;18.988;2023-07-29T07:52:13;97580.78;;;27.18;73.98
20350;BME280;10332;50.208;18.988;2023-07-29T07:54:41;97584.06;;;27.38;73.48
20350;BME280;10332;50.208;18.988;2023-07-29T07:57:08;97587.13;;;27.23;72.50
20350;BME280;10332;50.208;18.988;2023-07-29T07:59:36;97576.25;;;26.93;72.26
20350;BME280;10332;50.208;18.988;2023-07-29T08:02:03;97574.75;;;27.22;71.99
20350;BME280;10332;50.208;18.988;2023-07-29T08:04:31;97573.69;;;27.60;71.22
20350;BME280;10332;50.208;18.988;2023-07-29T08:06:58;97564.59;;;27.61;70.90
20350;BME280;10332;50.208;18.988;2023-07-29T08:09:26;97561.75;;;27.56;71.48
20350;BME280;10332;50.208;18.988;2023-07-29T08:11:53;97556.88;;;27.34;71.56
20350;BME280;10332;50.208;18.988;2023-07-29T08:14:21;97557.84;;;27.22;72.49
20350;BME280;10332;50.208;18.988;2023-07-29T08:16:49;97562.38;;;27.21;72.44
20350;BME280;10332;50.208;18.988;2023-07-29T08:19:16;97560.19;;;27.48;72.15
20350;BME280;10332;50.208;18.988;2023-07-29T08:21:47;97566.06;;;27.75;71.60
20350;BME280;10332;50.208;18.988;2023-07-29T08:24:14;97551.34;;;27.66;70.77
20350;BME280;10332;50.208;18.988;2023-07-29T08:26:42;97561.75;;;27.56;69.02
20350;BME280;10332;50.208;18.988;2023-07-29T08:29:09;97560.31;;;27.41;69.20
20350;BME280;10332;50.208;18.988;2023-07-29T08:31:37;97558.50;;;27.54;68.34
20350;BME280;10332;50.208;18.988;2023-07-29T08:34:04;97563.47;;;27.87;67.29
20350;BME280;10332;50.208;18.988;2023-07-29T08:36:32;97572.50;;;28.58;65.67
20350;BME280;10332;50.208;18.988;2023-07-29T08:39:00;97564.47;;;28.93;65.04
20350;BME280;10332;50.208;18.988;2023-07-29T08:41:56;97562.59;;;28.93;63.06
20350;BME280;10332;50.208;18.988;2023-07-29T08:44:35;97565.09;;;28.95;61.29
20350;BME280;10332;50.208;18.988;2023-07-29T08:47:04;97561.91;;;28.86;62.57
20350;BME280;10332;50.208;18.988;2023-07-29T08:49:33;97556.28;;;28.99;62.38
20350;BME280;10332;50.208;18.988;2023-07-29T08:52:01;97551.97;;;28.98;61.72
20350;BME280;10332;50.208;18.988;2023-07-29T08:54:29;97553.59;;;29.11;60.84
20350;BME280;10332;50.208;18.988;2023-07-29T08:56:57;97559.97;;;29.33;58.06
20350;BME280;10332;50.208;18.988;2023-07-29T08:59:26;97563.06;;;29.65;58.33
20350;BME280;10332;50.208;18.988;2023-07-29T09:01:54;97550.09;;;29.91;55.93
20350;BME280;10332;50.208;18.988;2023-07-29T09:04:24;97554.28;;;29.99;55.45
20350;BME280;10332;50.208;18.988;2023-07-29T09:06:55;97551.50;;;30.22;54.70
20350;BME280;10332;50.208;18.988;2023-07-29T09:09:24;97540.84;;;30.15;55.26
20350;BME280;10332;50.208;18.988;2023-07-29T09:11:53;97547.97;;;30.21;54.82
20350;BME280;10332;50.208;18.988;2023-07-29T09:14:21;97538.66;;;30.12;56.18
20350;BME280;10332;50.208;18.988;2023-07-29T09:16:48;97535.13;;;29.83;57.37
20350;BME280;10332;50.208;18.988;2023-07-29T09:19:16;97554.38;;;29.35;56.73
20350;BME280;10332;50.208;18.988;2023-07-29T09:21:46;97538.06;;;28.90;57.75
20350;BME280;10332;50.208;18.988;2023-07-29T09:24:16;97530.09;;;29.06;57.48
20350;BME280;10332;50.208;18.988;2023-07-29T09:26:51;97533.28;;;28.92;57.57
20350;BME280;10332;50.208;18.988;2023-07-29T09:29:23;97532.88;;;28.30;59.42
20350;BME280;10332;50.208;18.988;2023-07-29T09:31:51;97528.69;;;28.34;59.43
20350;BME280;10332;50.208;18.988;2023-07-29T09:34:18;97533.25;;;28.33;58.49
20350;BME280;10332;50.208;18.988;2023-07-29T09:36:46;97534.84;;;29.39;56.75
20350;BME280;10332;50.208;18.988;2023-07-29T09:39:17;97527.16;;;30.84;52.14
20350;BME280;10332;50.208;18.988;2023-07-29T09:41:47;97535.91;;;33.80;44.85
20350;BME280;10332;50.208;18.988;2023-07-29T09:44:16;97536.97;;;41.35;33.79
20350;BME280;10332;50.208;18.988;2023-07-29T09:46:46;97541.34;;;41.45;30.85
20350;BME280;10332;50.208;18.988;2023-07-29T09:49:13;97547.97;;;46.50;26.80
20350;BME280;10332;50.208;18.988;2023-07-29T09:51:41;97528.97;;;40.54;30.36
20350;BME280;10332;50.208;18.988;2023-07-29T09:54:10;97536.19;;;41.12;29.98
20350;BME280;10332;50.208;18.988;2023-07-29T09:56:41;97535.28;;;45.93;25.69
20350;BME280;10332;50.208;18.988;2023-07-29T09:59:11;97546.06;;;49.46;21.33
20350;BME280;10332;50.208;18.988;2023-07-29T10:01:41;97533.16;;;49.07;21.38
20350;BME280;10332;50.208;18.988;2023-07-29T10:04:10;97533.50;;;51.37;20.75
20350;BME280;10332;50.208;18.988;2023-07-29T10:06:41;97531.78;;;53.03;18.75
20350;BME280;10332;50.208;18.988;2023-07-29T10:09:11;97512.50;;;43.06;27.18
20350;BME280;10332;50.208;18.988;2023-07-29T10:11:41;97514.09;;;42.52;28.18
20350;BME280;10332;50.208;18.988;2023-07-29T10:14:09;97502.91;;;45.53;25.27
20350;BME280;10332;50.208;18.988;2023-07-29T10:16:39;97494.19;;;38.50;32.08
20350;BME280;10332;50.208;18.988;2023-07-29T10:19:09;97499.22;;;37.30;33.85
20350;BME280;10332;50.208;18.988;2023-07-29T10:21:39;97490.94;;;39.85;31.29
20350;BME280;10332;50.208;18.988;2023-07-29T10:24:15;97503.31;;;44.24;25.92
20350;BME280;10332;50.208;18.988;2023-07-29T10:26:49;97503.47;;;45.46;24.46
20350;BME280;10332;50.208;18.988;2023-07-29T10:29:20;97501.56;;;39.09;31.48
20350;BME280;10332;50.208;18.988;2023-07-29T10:31:57;97504.44;;;37.69;32.42
20350;BME280;10332;50.208;18.988;2023-07-29T10:34:25;97488.53;;;37.95;33.12
20350;BME280;10332;50.208;18.988;2023-07-29T10:36:53;97496.44;;;39.71;30.67
20350;BME280;10332;50.208;18.988;2023-07-29T10:39:21;97491.69;;;38.67;32.30
20350;BME280;10332;50.208;18.988;2023-07-29T10:42:06;97482.91;;;39.89;30.63
20350;BME280;10332;50.208;18.988;2023-07-29T10:47:15;97484.28;;;41.73;29.01
20350;BME280;10332;50.208;18.988;2023-07-29T10:49:51;97486.63;;;41.31;29.67
20350;BME280;10332;50.208;18.988;2023-07-29T10:55:03;97466.38;;;39.22;32.83
20350;BME280;10332;50.208;18.988;2023-07-29T10:57:39;97478.00;;;38.53;35.02
20350;BME280;10332;50.208;18.988;2023-07-29T11:00:09;97486.44;;;38.05;34.32
20350;BME280;10332;50.208;18.988;2023-07-29T11:02:38;97478.25;;;36.24;36.08
20350;BME280;10332;50.208;18.988;2023-07-29T11:05:18;97474.84;;;35.10;38.19
20350;BME280;10332;50.208;18.988;2023-07-29T11:07:48;97481.72;;;33.75;40.55
20350;BME280;10332;50.208;18.988;2023-07-29T11:10:16;97470.09;;;33.07;41.22
20350;BME280;10332;50.208;18.988;2023-07-29T11:12:52;97463.09;;;32.58;43.02
20350;BME280;10332;50.208;18.988;2023-07-29T11:15:27;97462.31;;;32.63;43.24
20350;BME280;10332;50.208;18.988;2023-07-29T11:18:00;97459.50;;;32.10;44.77
20350;BME280;10332;50.208;18.988;2023-07-29T11:20:34;97464.25;;;31.71;45.39
20350;BME280;10332;50.208;18.988;2023-07-29T11:23:03;97462.75;;;31.31;45.30
20350;BME280;10332;50.208;18.988;2023-07-29T11:25:31;97447.13;;;31.33;45.47
20350;BME280;10332;50.208;18.988;2023-07-29T11:28:01;97448.53;;;30.92;47.79
20350;BME280;10332;50.208;18.988;2023-07-29T11:30:34;97450.19;;;30.76;48.32
20350;BME280;10332;50.208;18.988;2023-07-29T11:33:02;97437.09;;;31.07;48.46
20350;BME280;10332;50.208;18.988;2023-07-29T11:35:32;97442.75;;;31.27;47.79
20350;BME280;10332;50.208;18.988;2023-07-29T11:38:00;97438.22;;;31.11;46.47
20350;BME280;10332;50.208;18.988;2023-07-29T11:40:28;97448.91;;;31.01;46.10
20350;BME280;10332;50.208;18.988;2023-07-29T11:42:55;97442.38;;;30.58;47.40
20350;BME280;10332;50.208;18.988;2023-07-29T11:45:24;97437.34;;;30.28;48.25
20350;BME280;10332;50.208;18.988;2023-07-29T11:48:02;97435.25;;;30.30;49.01
20350;BME280;10332;50.208;18.988;2023-07-29T11:50:30;97419.22;;;29.90;50.53
20350;BME280;10332;50.208;18.988;2023-07-29T11:52:58;97449.06;;;29.43;51.72
20350;BME280;10332;50.208;18.988;2023-07-29T11:55:26;97420.25;;;29.55;50.89
20350;BME280;10332;50.208;18.988;2023-07-29T11:57:53;97419.63;;;29.99;50.94
20350;BME280;10332;50.208;18.988;2023-07-29T12:00:21;97429.94;;;30.02;49.48
20350;BME280;10332;50.208;18.988;2023-07-29T12:02:50;97434.31;;;29.91;49.50
20350;BME280;10332;50.208;18.988;2023-07-29T12:05:20;97431.09;;;30.22;48.51
20350;BME280;10332;50.208;18.988;2023-07-29T12:07:49;97435.00;;;30.32;48.99
20350;BME280;10332;50.208;18.988;2023-07-29T12:10:17;97419.69;;;30.37;48.59
20350;BME280;10332;50.208;18.988;2023-07-29T12:12:48;97419.88;;;29.97;49.30
20350;BME280;10332;50.208;18.988;2023-07-29T12:15:29;97408.97;;;30.04;49.88
20350;BME280;10332;50.208;18.988;2023-07-29T12:17:59;97409.69;;;30.33;49.85
20350;BME280;10332;50.208;18.988;2023-07-29T12:20:32;97416.81;;;30.61;50.12
20350;BME280;10332;50.208;18.988;2023-07-29T12:23:00;97401.13;;;30.58;49.14
20350;BME280;10332;50.208;18.988;2023-07-29T12:25:33;97400.06;;;30.75;48.86
20350;BME280;10332;50.208;18.988;2023-07-29T12:28:06;97399.72;;;30.94;48.90
20350;BME280;10332;50.208;18.988;2023-07-29T12:30:41;97391.47;;;30.40;49.83
20350;BME280;10332;50.208;18.988;2023-07-29T12:33:09;97395.50;;;30.20;49.01
20350;BME280;10332;50.208;18.988;2023-07-29T12:35:37;97403.59;;;30.81;49.09
20350;BME280;10332;50.208;18.988;2023-07-29T12:38:05;97383.19;;;30.85;48.23
20350;BME280;10332;50.208;18.988;2023-07-29T12:40:37;97386.50;;;30.92;47.83
20350;BME280;10332;50.208;18.988;2023-07-29T12:43:06;97386.59;;;31.24;47.76
20350;BME280;10332;50.208;18.988;2023-07-29T12:45:36;97384.78;;;31.30;47.68
20350;BME280;10332;50.208;18.988;2023-07-29T12:48:10;97381.13;;;31.19;47.55
20350;BME280;10332;50.208;18.988;2023-07-29T12:50:38;97387.69;;;31.01;47.42
20350;BME280;10332;50.208;18.988;2023-07-29T12:53:08;97379.72;;;31.17;45.62
20350;BME280;10332;50.208;18.988;2023-07-29T12:55:37;97386.16;;;31.11;45.39
20350;BME280;10332;50.208;18.988;2023-07-29T12:58:05;97375.59;;;31.09;46.01
20350;BME280;10332;50.208;18.988;2023-07-29T13:00:32;97382.84;;;30.82;45.90
20350;BME280;10332;50.208;18.988;2023-07-29T13:03:00;97368.78;;;30.74;45.74
20350;BME280;10332;50.208;18.988;2023-07-29T13:05:27;97388.53;;;30.63;46.18
20350;BME280;10332;50.208;18.988;2023-07-29T13:07:55;97388.56;;;30.46;46.37